sensor_id;sensor_type;location;lat;lon;timestamp;pressure;altitude;pressure_sealevel;temperature;humidity
61769;BME280;47669;48.712;9.016;2023-01-25T00:02:25;98113.81;;;-0.21;nan
61769;BME280;47669;48.712;9.016;2023-01-25T00:04:50;98120.72;;;-0.22;nan
61769;BME280;47669;48.712;9.016;2023-01-25T00:07:15;98119.25;;;-0.13;nan
61769;BME280;47669;48.712;9.016;2023-01-25T00:09:41;98106.50;;;-0.16;nan
61769;BME280;47669;48.712;9.016;2023-01-25T00:12:06;98111.81;;;-0.17;nan
61769;BME280;47669;48.712;9.016;2023-01-25T00:14:31;98109.81;;;-0.14;nan
61769;BME280;47669;48.712;9.016;2023-01-25T00:16:56;98111.94;;;-0.19;nan
61769;BME280;47669;48.712;9.016;2023-01-25T00:19:22;98111.31;;;-0.23;nan
61769;BME280;47669;48.712;9.016;2023-01-25T00:21:48;98100.72;;;-0.20;nan
61769;BME280;47669;48.712;9.016;2023-01-25T00:24:13;98095.13;;;-0.13;nan
61769;BME280;47669;48.712;9.016;2023-01-25T00:26:39;98088.28;;;-0.14;nan
61769;BME280;47669;48.712;9.016;2023-01-25T00:29:05;98081.88;;;-0.22;nan
61769;BME280;47669;48.712;9.016;2023-01-25T00:36:50;98092.63;;;-0.15;nan
61769;BME280;47669;48.712;9.016;2023-01-25T00:39:16;98089.44;;;-0.18;nan
61769;BME280;47669;48.712;9.016;2023-01-25T00:41:42;98087.06;;;-0.22;nan
61769;BME280;47669;48.712;9.016;2023-01-25T00:44:08;98098.63;;;-0.14;nan
61769;BME280;47669;48.712;9.016;2023-01-25T00:46:33;98089.91;;;-0.25;nan
61769;BME280;47669;48.712;9.016;2023-01-25T00:48:58;98101.88;;;0.01;nan
61769;BME280;47669;48.712;9.016;2023-01-25T00:51:24;98094.97;;;-0.12;nan
61769;BME280;47669;48.712;9.016;2023-01-25T00:53:50;98094.88;;;-0.10;nan
61769;BME280;47669;48.712;9.016;2023-01-25T00:56:15;98092.19;;;-0.09;nan
61769;BME280;47669;48.712;9.016;2023-01-25T00:58:40;98080.78;;;0.05;nan
61769;BME280;47669;48.712;9.016;2023-01-25T01:01:06;98074.69;;;-0.29;nan
61769;BME280;47669;48.712;9.016;2023-01-25T01:03:31;98078.03;;;-0.16;nan
61769;BME280;47669;48.712;9.016;2023-01-25T01:06:05;98081.34;;;-0.03;nan
61769;BME280;47669;48.712;9.016;2023-01-25T01:08:33;98073.84;;;-0.06;nan
61769;BME280;47669;48.712;9.016;2023-01-25T01:11:00;98073.31;;;-0.22;nan
61769;BME280;47669;48.712;9.016;2023-01-25T01:13:29;98075.56;;;-0.17;nan
61769;BME280;47669;48.712;9.016;2023-01-25T01:15:55;98073.81;;;-0.17;nan
61769;BME280;47669;48.712;9.016;2023-01-25T01:18:21;98074.47;;;-0.26;nan
61769;BME280;47669;48.712;9.016;2023-01-25T01:20:52;98073.09;;;-0.19;nan
61769;BME280;47669;48.712;9.016;2023-01-25T01:23:18;98077.81;;;-0.13;nan
61769;BME280;47669;48.712;9.016;2023-01-25T01:25:44;98074.84;;;-0.20;nan
61769;BME280;47669;48.712;9.016;2023-01-25T01:28:10;98070.72;;;-0.22;nan
61769;BME280;47669;48.712;9.016;2023-01-25T01:30:36;98076.84;;;-0.23;nan
61769;BME280;47669;48.712;9.016;2023-01-25T01:33:02;98082.28;;;-0.15;nan
61769;BME280;47669;48.712;9.016;2023-01-25T01:35:28;98069.44;;;-0.16;nan
61769;BME280;47669;48.712;9.016;2023-01-25T01:37:54;98076.38;;;-0.17;nan
61769;BME280;47669;48.712;9.016;2023-01-25T01:40:19;98070.59;;;-0.21;nan
61769;BME280;47669;48.712;9.016;2023-01-25T01:43:01;98075.91;;;-0.22;nan
61769;BME280;47669;48.712;9.016;2023-01-25T01:50:54;98076.63;;;-0.09;nan
61769;BME280;47669;48.712;9.016;2023-01-25T01:53:22;98079.72;;;-0.04;nan
61769;BME280;47669;48.712;9.016;2023-01-25T01:55:49;98068.63;;;-0.17;nan
61769;BME280;47669;48.712;9.016;2023-01-25T01:58:15;98079.53;;;-0.25;nan
61769;BME280;47669;48.712;9.016;2023-01-25T02:00:41;98073.41;;;-0.24;nan
61769;BME280;47669;48.712;9.016;2023-01-25T02:03:08;98074.38;;;-0.25;nan
61769;BME280;47669;48.712;9.016;2023-01-25T02:05:44;98077.06;;;-0.26;nan
61769;BME280;47669;48.712;9.016;2023-01-25T02:08:13;98076.84;;;-0.23;nan
61769;BME280;47669;48.712;9.016;2023-01-25T02:10:40;98080.75;;;-0.17;nan
61769;BME280;47669;48.712;9.016;2023-01-25T02:13:06;98076.94;;;-0.25;nan
61769;BME280;47669;48.712;9.016;2023-01-25T02:15:41;98078.53;;;-0.11;nan
61769;BME280;47669;48.712;9.016;2023-01-25T02:18:08;98077.00;;;-0.02;nan
61769;BME280;47669;48.712;9.016;2023-01-25T02:20:54;98070.28;;;-0.05;nan
61769;BME280;47669;48.712;9.016;2023-01-25T02:23:41;98069.09;;;-0.12;nan
61769;BME280;47669;48.712;9.016;2023-01-25T02:26:12;98068.03;;;-0.21;nan
61769;BME280;47669;48.712;9.016;2023-01-25T02:28:42;98062.50;;;-0.16;nan
61769;BME280;47669;48.712;9.016;2023-01-25T02:31:09;98064.78;;;0.00;nan
61769;BME280;47669;48.712;9.016;2023-01-25T02:33:35;98058.16;;;-0.04;nan
61769;BME280;47669;48.712;9.016;2023-01-25T02:38:41;98053.19;;;-0.18;nan
61769;BME280;47669;48.712;9.016;2023-01-25T02:41:10;98050.50;;;-0.17;nan
61769;BME280;47669;48.712;9.016;2023-01-25T02:43:38;98038.41;;;-0.05;nan
61769;BME280;47669;48.712;9.016;2023-01-25T02:46:14;98046.38;;;-0.08;nan
61769;BME280;47669;48.712;9.016;2023-01-25T02:48:41;98044.50;;;-0.06;nan
61769;BME280;47669;48.712;9.016;2023-01-25T02:51:07;98054.44;;;0.00;nan
61769;BME280;47669;48.712;9.016;2023-01-25T02:53:33;98055.72;;;-0.06;nan
61769;BME280;47669;48.712;9.016;2023-01-25T02:55:58;98049.44;;;-0.14;nan
61769;BME280;47669;48.712;9.016;2023-01-25T02:58:24;98050.38;;;-0.04;nan
61769;BME280;47669;48.712;9.016;2023-01-25T03:00:49;98051.94;;;-0.02;nan
61769;BME280;47669;48.712;9.016;2023-01-25T03:03:14;98044.28;;;-0.03;nan
61769;BME280;47669;48.712;9.016;2023-01-25T03:05:39;98043.53;;;-0.16;nan
61769;BME280;47669;48.712;9.016;2023-01-25T03:08:05;98039.78;;;-0.12;nan
61769;BME280;47669;48.712;9.016;2023-01-25T03:10:30;98029.22;;;-0.09;nan
61769;BME280;47669;48.712;9.016;2023-01-25T03:12:55;98030.75;;;0.05;nan
61769;BME280;47669;48.712;9.016;2023-01-25T03:15:20;98022.75;;;-0.04;nan
61769;BME280;47669;48.712;9.016;2023-01-25T03:17:46;98024.50;;;0.07;nan
61769;BME280;47669;48.712;9.016;2023-01-25T03:20:11;98024.75;;;0.15;nan
61769;BME280;47669;48.712;9.016;2023-01-25T03:22:36;98014.75;;;0.22;nan
61769;BME280;47669;48.712;9.016;2023-01-25T03:25:02;98017.56;;;0.19;nan
61769;BME280;47669;48.712;9.016;2023-01-25T03:27:30;98007.34;;;0.29;nan
61769;BME280;47669;48.712;9.016;2023-01-25T03:29:56;97999.34;;;0.32;nan
61769;BME280;47669;48.712;9.016;2023-01-25T03:32:21;98001.31;;;0.06;nan
61769;BME280;47669;48.712;9.016;2023-01-25T03:34:47;97999.91;;;0.02;nan
61769;BME280;47669;48.712;9.016;2023-01-25T03:37:12;98003.59;;;0.22;nan
61769;BME280;47669;48.712;9.016;2023-01-25T03:39:37;97996.97;;;0.06;nan
61769;BME280;47669;48.712;9.016;2023-01-25T03:42:03;97996.50;;;0.01;nan
61769;BME280;47669;48.712;9.016;2023-01-25T03:44:28;97998.16;;;0.02;nan
61769;BME280;47669;48.712;9.016;2023-01-25T03:46:53;98003.91;;;-0.06;nan
61769;BME280;47669;48.712;9.016;2023-01-25T03:49:19;98005.91;;;-0.09;nan
61769;BME280;47669;48.712;9.016;2023-01-25T03:51:44;98004.59;;;0.08;nan
61769;BME280;47669;48.712;9.016;2023-01-25T03:54:09;98001.81;;;0.11;nan
61769;BME280;47669;48.712;9.016;2023-01-25T03:56:36;98003.31;;;0.25;nan
61769;BME280;47669;48.712;9.016;2023-01-25T03:59:01;97997.22;;;0.14;nan
61769;BME280;47669;48.712;9.016;2023-01-25T04:01:27;98003.56;;;0.10;nan
61769;BME280;47669;48.712;9.016;2023-01-25T04:03:52;97999.91;;;0.13;nan
61769;BME280;47669;48.712;9.016;2023-01-25T04:06:18;97998.28;;;0.12;nan
61769;BME280;47669;48.712;9.016;2023-01-25T04:08:43;97990.00;;;-0.05;nan
61769;BME280;47669;48.712;9.016;2023-01-25T04:11:09;97995.81;;;0.10;nan
61769;BME280;47669;48.712;9.016;2023-01-25T04:13:35;98003.56;;;-0.01;nan
61769;BME280;47669;48.712;9.016;2023-01-25T04:16:02;98001.91;;;0.09;nan
61769;BME280;47669;48.712;9.016;2023-01-25T04:18:27;97999.56;;;0.06;nan
61769;BME280;47669;48.712;9.016;2023-01-25T04:20:53;97997.78;;;-0.05;nan
61769;BME280;47669;48.712;9.016;2023-01-25T04:23:19;97999.66;;;-0.07;nan
61769;BME280;47669;48.712;9.016;2023-01-25T04:25:57;97998.84;;;-0.07;nan
61769;BME280;47669;48.712;9.016;2023-01-25T04:28:23;97994.88;;;0.00;nan
61769;BME280;47669;48.712;9.016;2023-01-25T04:30:48;97993.19;;;-0.01;nan
61769;BME280;47669;48.712;9.016;2023-01-25T04:33:14;97995.44;;;-0.08;nan
61769;BME280;47669;48.712;9.016;2023-01-25T04:35:39;97990.00;;;-0.05;nan
61769;BME280;47669;48.712;9.016;2023-01-25T04:38:05;97990.13;;;-0.06;nan
61769;BME280;47669;48.712;9.016;2023-01-25T04:40:31;97996.75;;;0.21;nan
61769;BME280;47669;48.712;9.016;2023-01-25T04:42:57;97989.44;;;0.14;nan
61769;BME280;47669;48.712;9.016;2023-01-25T04:45:23;97983.66;;;0.11;nan
61769;BME280;47669;48.712;9.016;2023-01-25T04:47:54;97979.19;;;0.13;nan
61769;BME280;47669;48.712;9.016;2023-01-25T04:50:20;97982.50;;;0.26;nan
61769;BME280;47669;48.712;9.016;2023-01-25T04:52:45;97988.03;;;0.22;nan
61769;BME280;47669;48.712;9.016;2023-01-25T04:55:11;97980.38;;;-0.03;nan
61769;BME280;47669;48.712;9.016;2023-01-25T04:57:36;97980.38;;;0.20;nan
61769;BME280;47669;48.712;9.016;2023-01-25T05:00:02;97981.09;;;0.33;nan
61769;BME280;47669;48.712;9.016;2023-01-25T05:02:28;97980.59;;;0.28;nan
61769;BME280;47669;48.712;9.016;2023-01-25T05:04:53;97978.28;;;0.14;nan
61769;BME280;47669;48.712;9.016;2023-01-25T05:07:18;97975.09;;;0.22;nan
61769;BME280;47669;48.712;9.016;2023-01-25T05:09:43;97969.88;;;0.33;nan
61769;BME280;47669;48.712;9.016;2023-01-25T05:12:09;97969.75;;;0.34;nan
61769;BME280;47669;48.712;9.016;2023-01-25T05:14:38;97967.44;;;0.20;nan
61769;BME280;47669;48.712;9.016;2023-01-25T05:17:04;97963.31;;;0.06;nan
61769;BME280;47669;48.712;9.016;2023-01-25T05:19:30;97967.88;;;0.25;nan
61769;BME280;47669;48.712;9.016;2023-01-25T05:21:55;97965.66;;;0.32;nan
61769;BME280;47669;48.712;9.016;2023-01-25T05:24:27;97967.03;;;0.47;nan
61769;BME280;47669;48.712;9.016;2023-01-25T05:26:54;97963.75;;;0.11;nan
61769;BME280;47669;48.712;9.016;2023-01-25T05:29:27;97967.75;;;0.15;nan
61769;BME280;47669;48.712;9.016;2023-01-25T05:31:52;97964.34;;;0.04;nan
61769;BME280;47669;48.712;9.016;2023-01-25T05:34:17;97963.91;;;0.10;nan
61769;BME280;47669;48.712;9.016;2023-01-25T05:36:43;97961.19;;;0.11;nan
61769;BME280;47669;48.712;9.016;2023-01-25T05:39:08;97961.53;;;0.07;nan
61769;BME280;47669;48.712;9.016;2023-01-25T05:41:33;97967.78;;;-0.07;nan
61769;BME280;47669;48.712;9.016;2023-01-25T05:43:59;97965.06;;;0.17;nan
61769;BME280;47669;48.712;9.016;2023-01-25T05:46:26;97959.88;;;0.06;nan
61769;BME280;47669;48.712;9.016;2023-01-25T05:48:52;97962.94;;;0.22;nan
61769;BME280;47669;48.712;9.016;2023-01-25T05:51:17;97952.00;;;0.07;nan
61769;BME280;47669;48.712;9.016;2023-01-25T05:53:43;97956.59;;;0.26;nan
61769;BME280;47669;48.712;9.016;2023-01-25T05:56:09;97950.69;;;0.02;nan
61769;BME280;47669;48.712;9.016;2023-01-25T05:58:35;97947.53;;;0.09;nan
61769;BME280;47669;48.712;9.016;2023-01-25T06:01:02;97954.47;;;0.20;nan
61769;BME280;47669;48.712;9.016;2023-01-25T06:03:28;97947.88;;;-0.07;nan
61769;BME280;47669;48.712;9.016;2023-01-25T06:05:55;97952.34;;;0.03;nan
61769;BME280;47669;48.712;9.016;2023-01-25T06:08:20;97950.00;;;0.22;nan
61769;BME280;47669;48.712;9.016;2023-01-25T06:10:45;97939.38;;;0.25;nan
61769;BME280;47669;48.712;9.016;2023-01-25T06:13:11;97944.81;;;0.22;nan
61769;BME280;47669;48.712;9.016;2023-01-25T06:15:36;97938.22;;;0.18;nan
61769;BME280;47669;48.712;9.016;2023-01-25T06:18:02;97939.75;;;0.09;nan
61769;BME280;47669;48.712;9.016;2023-01-25T06:20:27;97948.38;;;-0.02;nan
61769;BME280;47669;48.712;9.016;2023-01-25T06:22:52;97939.63;;;-0.01;nan
61769;BME280;47669;48.712;9.016;2023-01-25T06:25:18;97944.81;;;0.11;nan
61769;BME280;47669;48.712;9.016;2023-01-25T06:27:43;97947.78;;;0.06;nan
61769;BME280;47669;48.712;9.016;2023-01-25T06:30:09;97944.00;;;-0.01;nan
61769;BME280;47669;48.712;9.016;2023-01-25T06:32:34;97939.63;;;-0.01;nan
61769;BME280;47669;48.712;9.016;2023-01-25T06:35:00;97941.41;;;-0.12;nan
61769;BME280;47669;48.712;9.016;2023-01-25T06:37:25;97939.53;;;0.01;nan
61769;BME280;47669;48.712;9.016;2023-01-25T06:39:50;97938.34;;;0.05;nan
61769;BME280;47669;48.712;9.016;2023-01-25T06:42:16;97931.66;;;0.03;nan
61769;BME280;47669;48.712;9.016;2023-01-25T06:44:41;97935.03;;;-0.08;nan
61769;BME280;47669;48.712;9.016;2023-01-25T06:47:10;97934.81;;;-0.05;nan
61769;BME280;47669;48.712;9.016;2023-01-25T06:49:36;97938.72;;;0.01;nan
61769;BME280;47669;48.712;9.016;2023-01-25T06:52:02;97932.81;;;-0.02;nan
61769;BME280;47669;48.712;9.016;2023-01-25T06:54:27;97938.22;;;0.18;nan
61769;BME280;47669;48.712;9.016;2023-01-25T06:56:52;97922.56;;;-0.14;nan
61769;BME280;47669;48.712;9.016;2023-01-25T06:59:18;97930.47;;;-0.05;nan
61769;BME280;47669;48.712;9.016;2023-01-25T07:01:43;97924.09;;;-0.01;nan
61769;BME280;47669;48.712;9.016;2023-01-25T07:04:09;97922.91;;;0.15;nan
61769;BME280;47669;48.712;9.016;2023-01-25T07:06:36;97916.69;;;0.06;nan
61769;BME280;47669;48.712;9.016;2023-01-25T07:09:07;97917.28;;;0.10;nan
61769;BME280;47669;48.712;9.016;2023-01-25T07:11:33;97907.84;;;0.09;nan
61769;BME280;47669;48.712;9.016;2023-01-25T07:13:58;97904.06;;;0.24;nan
61769;BME280;47669;48.712;9.016;2023-01-25T07:16:24;97900.19;;;0.18;nan
61769;BME280;47669;48.712;9.016;2023-01-25T07:18:50;97911.47;;;0.29;nan
61769;BME280;47669;48.712;9.016;2023-01-25T07:21:19;97904.19;;;0.11;nan
61769;BME280;47669;48.712;9.016;2023-01-25T07:23:45;97908.44;;;0.12;nan
61769;BME280;47669;48.712;9.016;2023-01-25T07:26:17;97902.19;;;0.15;nan
61769;BME280;47669;48.712;9.016;2023-01-25T07:28:44;97911.72;;;0.14;nan
61769;BME280;47669;48.712;9.016;2023-01-25T07:31:09;97906.28;;;0.40;nan
61769;BME280;47669;48.712;9.016;2023-01-25T07:33:34;97906.66;;;0.24;nan
61769;BME280;47669;48.712;9.016;2023-01-25T07:36:01;97911.94;;;0.34;nan
61769;BME280;47669;48.712;9.016;2023-01-25T07:38:27;97899.72;;;0.13;nan
61769;BME280;47669;48.712;9.016;2023-01-25T07:40:52;97898.41;;;0.30;nan
61769;BME280;47669;48.712;9.016;2023-01-25T07:43:18;97893.84;;;0.11;nan
61769;BME280;47669;48.712;9.016;2023-01-25T07:45:44;97893.22;;;0.19;nan
61769;BME280;47669;48.712;9.016;2023-01-25T07:48:13;97890.66;;;0.08;nan
61769;BME280;47669;48.712;9.016;2023-01-25T07:50:38;97893.63;;;0.03;nan
61769;BME280;47669;48.712;9.016;2023-01-25T07:53:05;97899.13;;;0.21;nan
61769;BME280;47669;48.712;9.016;2023-01-25T07:55:31;97891.44;;;0.31;nan
61769;BME280;47669;48.712;9.016;2023-01-25T07:57:56;97891.34;;;0.21;nan
61769;BME280;47669;48.712;9.016;2023-01-25T08:00:21;97882.28;;;0.15;nan
61769;BME280;47669;48.712;9.016;2023-01-25T08:02:50;97884.63;;;0.30;nan
61769;BME280;47669;48.712;9.016;2023-01-25T08:05:16;97887.91;;;0.32;nan
61769;BME280;47669;48.712;9.016;2023-01-25T08:07:41;97891.50;;;0.19;nan
61769;BME280;47669;48.712;9.016;2023-01-25T08:10:07;97894.06;;;0.19;nan
61769;BME280;47669;48.712;9.016;2023-01-25T08:12:32;97897.91;;;0.36;nan
61769;BME280;47669;48.712;9.016;2023-01-25T08:14:58;97890.63;;;0.30;nan
61769;BME280;47669;48.712;9.016;2023-01-25T08:17:24;97894.38;;;0.37;nan
61769;BME280;47669;48.712;9.016;2023-01-25T08:19:55;97894.78;;;0.22;nan
61769;BME280;47669;48.712;9.016;2023-01-25T08:22:20;97892.66;;;0.15;nan
61769;BME280;47669;48.712;9.016;2023-01-25T08:24:46;97891.94;;;0.13;nan
61769;BME280;47669;48.712;9.016;2023-01-25T08:27:11;97902.19;;;0.04;nan
61769;BME280;47669;48.712;9.016;2023-01-25T08:29:36;97903.38;;;-0.01;nan
61769;BME280;47669;48.712;9.016;2023-01-25T08:32:02;97896.31;;;0.13;nan
61769;BME280;47669;48.712;9.016;2023-01-25T08:34:28;97901.28;;;0.05;nan
61769;BME280;47669;48.712;9.016;2023-01-25T08:36:55;97899.00;;;0.23;nan
61769;BME280;47669;48.712;9.016;2023-01-25T08:39:21;97896.78;;;0.18;nan
61769;BME280;47669;48.712;9.016;2023-01-25T08:41:46;97895.59;;;0.22;nan
61769;BME280;47669;48.712;9.016;2023-01-25T08:44:11;97895.50;;;0.56;nan
61769;BME280;47669;48.712;9.016;2023-01-25T08:46:37;97878.66;;;0.18;nan
61769;BME280;47669;48.712;9.016;2023-01-25T08:49:03;97878.88;;;0.15;nan
61769;BME280;47669;48.712;9.016;2023-01-25T08:51:30;97875.47;;;0.26;nan
61769;BME280;47669;48.712;9.016;2023-01-25T08:53:56;97877.28;;;0.35;nan
61769;BME280;47669;48.712;9.016;2023-01-25T08:56:21;97876.75;;;0.20;nan
61769;BME280;47669;48.712;9.016;2023-01-25T08:58:48;97871.41;;;0.33;nan
61769;BME280;47669;48.712;9.016;2023-01-25T09:01:16;97871.50;;;-0.01;nan
61769;BME280;47669;48.712;9.016;2023-01-25T09:03:48;97867.13;;;0.11;nan
61769;BME280;47669;48.712;9.016;2023-01-25T09:06:14;97863.34;;;0.15;nan
61769;BME280;47669;48.712;9.016;2023-01-25T09:08:40;97862.34;;;0.38;nan
61769;BME280;47669;48.712;9.016;2023-01-25T09:11:13;97855.53;;;0.37;nan
61769;BME280;47669;48.712;9.016;2023-01-25T09:13:39;97850.06;;;0.41;nan
61769;BME280;47669;48.712;9.016;2023-01-25T09:16:10;97859.03;;;0.36;nan
61769;BME280;47669;48.712;9.016;2023-01-25T09:18:37;97866.53;;;0.07;nan
61769;BME280;47669;48.712;9.016;2023-01-25T09:21:11;97857.56;;;0.23;nan
61769;BME280;47669;48.712;9.016;2023-01-25T09:23:37;97858.97;;;0.15;nan
61769;BME280;47669;48.712;9.016;2023-01-25T09:26:03;97853.47;;;0.09;nan
61769;BME280;47669;48.712;9.016;2023-01-25T09:28:29;97850.03;;;0.19;nan
61769;BME280;47669;48.712;9.016;2023-01-25T09:30:56;97850.75;;;0.10;nan
61769;BME280;47669;48.712;9.016;2023-01-25T09:33:32;97856.16;;;0.18;100.00
61769;BME280;47669;48.712;9.016;2023-01-25T09:35:58;97855.16;;;0.31;100.00
61769;BME280;47669;48.712;9.016;2023-01-25T09:38:24;97847.09;;;0.13;100.00
61769;BME280;47669;48.712;9.016;2023-01-25T09:41:23;97846.78;;;0.38;100.00
61769;BME280;47669;48.712;9.016;2023-01-25T09:44:07;97849.19;;;0.63;100.00
61769;BME280;47669;48.712;9.016;2023-01-25T09:46:52;97851.84;;;0.40;100.00
61769;BME280;47669;48.712;9.016;2023-01-25T09:49:42;97858.09;;;0.49;100.00
61769;BME280;47669;48.712;9.016;2023-01-25T09:52:44;97855.03;;;0.44;100.00
61769;BME280;47669;48.712;9.016;2023-01-25T09:55:17;97848.84;;;0.56;100.00
61769;BME280;47669;48.712;9.016;2023-01-25T09:57:45;97850.34;;;0.37;100.00
61769;BME280;47669;48.712;9.016;2023-01-25T10:03:14;97838.56;;;0.33;100.00
61769;BME280;47669;48.712;9.016;2023-01-25T10:05:46;97843.00;;;0.43;100.00
61769;BME280;47669;48.712;9.016;2023-01-25T10:08:22;97847.38;;;0.42;100.00
61769;BME280;47669;48.712;9.016;2023-01-25T10:10:55;97841.69;;;0.48;100.00
61769;BME280;47669;48.712;9.016;2023-01-25T10:13:23;97841.63;;;0.71;100.00
61769;BME280;47669;48.712;9.016;2023-01-25T10:15:52;97835.72;;;0.36;100.00
61769;BME280;47669;48.712;9.016;2023-01-25T10:18:29;97839.19;;;0.26;100.00
61769;BME280;47669;48.712;9.016;2023-01-25T10:20:58;97840.22;;;0.67;100.00
61769;BME280;47669;48.712;9.016;2023-01-25T10:28:55;97840.22;;;0.67;100.00
61769;BME280;47669;48.712;9.016;2023-01-25T10:31:49;97829.34;;;0.41;100.00
61769;BME280;47669;48.712;9.016;2023-01-25T10:34:28;97822.34;;;0.31;100.00
61769;BME280;47669;48.712;9.016;2023-01-25T10:37:10;97813.94;;;0.39;100.00
61769;BME280;47669;48.712;9.016;2023-01-25T10:39:40;97815.47;;;0.42;100.00
61769;BME280;47669;48.712;9.016;2023-01-25T10:42:11;97813.72;;;0.31;100.00
61769;BME280;47669;48.712;9.016;2023-01-25T10:44:37;97808.72;;;0.71;100.00
61769;BME280;47669;48.712;9.016;2023-01-25T10:47:10;97808.41;;;0.32;100.00
61769;BME280;47669;48.712;9.016;2023-01-25T10:49:53;97814.34;;;0.55;100.00
61769;BME280;47669;48.712;9.016;2023-01-25T10:52:29;97800.66;;;0.32;100.00
61769;BME280;47669;48.712;9.016;2023-01-25T10:55:18;97798.09;;;0.53;100.00
61769;BME280;47669;48.712;9.016;2023-01-25T10:57:48;97789.97;;;0.26;100.00
61769;BME280;47669;48.712;9.016;2023-01-25T11:00:35;97791.28;;;0.20;100.00
61769;BME280;47669;48.712;9.016;2023-01-25T11:03:02;97798.31;;;0.50;100.00
61769;BME280;47669;48.712;9.016;2023-01-25T11:05:37;97789.78;;;0.38;100.00
61769;BME280;47669;48.712;9.016;2023-01-25T11:08:23;97787.50;;;0.24;100.00
61769;BME280;47669;48.712;9.016;2023-01-25T11:10:50;97785.78;;;0.34;100.00
61769;BME280;47669;48.712;9.016;2023-01-25T11:15:42;97786.50;;;0.36;100.00
61769;BME280;47669;48.712;9.016;2023-01-25T11:18:28;97783.00;;;0.58;100.00
61769;BME280;47669;48.712;9.016;2023-01-25T11:21:04;97787.72;;;0.21;100.00
61769;BME280;47669;48.712;9.016;2023-01-25T11:23:30;97782.13;;;0.37;100.00
61769;BME280;47669;48.712;9.016;2023-01-25T11:26:18;97781.47;;;-0.09;100.00
61769;BME280;47669;48.712;9.016;2023-01-25T11:28:45;97787.41;;;0.14;100.00
61769;BME280;47669;48.712;9.016;2023-01-25T11:31:15;97786.56;;;0.46;100.00
61769;BME280;47669;48.712;9.016;2023-01-25T11:33:41;97780.50;;;0.36;100.00
61769;BME280;47669;48.712;9.016;2023-01-25T11:38:46;97766.84;;;0.34;100.00
61769;BME280;47669;48.712;9.016;2023-01-25T11:41:26;97760.00;;;0.12;100.00
61769;BME280;47669;48.712;9.016;2023-01-25T11:46:49;97745.97;;;0.14;100.00
61769;BME280;47669;48.712;9.016;2023-01-25T11:49:42;97754.59;;;0.36;100.00
61769;BME280;47669;48.712;9.016;2023-01-25T11:52:30;97747.75;;;0.14;100.00
61769;BME280;47669;48.712;9.016;2023-01-25T12:01:05;97726.97;;;-0.07;100.00
61769;BME280;47669;48.712;9.016;2023-01-25T12:06:26;97711.16;;;0.28;100.00
61769;BME280;47669;48.712;9.016;2023-01-25T12:12:06;97700.31;;;0.55;100.00
61769;BME280;47669;48.712;9.016;2023-01-25T12:26:18;97670.09;;;0.24;100.00
61769;BME280;47669;48.712;9.016;2023-01-25T12:28:49;97658.66;;;0.26;100.00
61769;BME280;47669;48.712;9.016;2023-01-25T12:31:23;97652.56;;;0.37;100.00
61769;BME280;47669;48.712;9.016;2023-01-25T12:33:58;97651.88;;;-0.07;100.00
61769;BME280;47669;48.712;9.016;2023-01-25T12:36:39;97647.56;;;-0.18;100.00
61769;BME280;47669;48.712;9.016;2023-01-25T12:39:23;97647.47;;;0.05;100.00
61769;BME280;47669;48.712;9.016;2023-01-25T12:42:24;97634.97;;;0.10;100.00
61769;BME280;47669;48.712;9.016;2023-01-25T12:45:08;97638.38;;;-0.11;100.00
61769;BME280;47669;48.712;9.016;2023-01-25T12:47:55;97628.38;;;0.06;100.00
61769;BME280;47669;48.712;9.016;2023-01-25T12:50:26;97625.66;;;0.49;100.00
61769;BME280;47669;48.712;9.016;2023-01-25T12:53:08;97627.97;;;0.22;100.00
61769;BME280;47669;48.712;9.016;2023-01-25T12:55:37;97616.53;;;0.24;100.00
61769;BME280;47669;48.712;9.016;2023-01-25T12:58:06;97612.47;;;0.31;100.00
61769;BME280;47669;48.712;9.016;2023-01-25T13:11:44;97585.78;;;-0.11;100.00
61769;BME280;47669;48.712;9.016;2023-01-25T13:19:39;97593.06;;;-0.16;100.00
61769;BME280;47669;48.712;9.016;2023-01-25T13:22:09;97585.19;;;-0.15;100.00
61769;BME280;47669;48.712;9.016;2023-01-25T13:25:05;97583.53;;;0.05;100.00
61769;BME280;47669;48.712;9.016;2023-01-25T13:27:32;97579.56;;;0.01;100.00
61769;BME280;47669;48.712;9.016;2023-01-25T13:30:28;97578.88;;;-0.01;100.00
61769;BME280;47669;48.712;9.016;2023-01-25T13:32:56;97576.47;;;0.59;100.00
61769;BME280;47669;48.712;9.016;2023-01-25T13:35:34;97572.22;;;0.27;100.00
61769;BME280;47669;48.712;9.016;2023-01-25T13:38:27;97569.72;;;-0.05;100.00
61769;BME280;47669;48.712;9.016;2023-01-25T13:41:05;97561.16;;;-0.06;100.00
61769;BME280;47669;48.712;9.016;2023-01-25T13:43:36;97559.09;;;0.19;100.00
61769;BME280;47669;48.712;9.016;2023-01-25T13:46:03;97554.34;;;0.24;100.00
61769;BME280;47669;48.712;9.016;2023-01-25T13:48:33;97546.72;;;0.02;100.00
61769;BME280;47669;48.712;9.016;2023-01-25T13:51:09;97545.03;;;0.12;100.00
61769;BME280;47669;48.712;9.016;2023-01-25T13:53:38;97546.31;;;0.27;100.00
61769;BME280;47669;48.712;9.016;2023-01-25T13:56:04;97541.63;;;0.21;100.00
61769;BME280;47669;48.712;9.016;2023-01-25T13:58:34;97545.75;;;0.24;100.00
61769;BME280;47669;48.712;9.016;2023-01-25T14:01:05;97548.53;;;0.32;100.00
61769;BME280;47669;48.712;9.016;2023-01-25T14:03:36;97543.66;;;0.17;100.00
61769;BME280;47669;48.712;9.016;2023-01-25T14:06:06;97546.06;;;0.30;100.00
61769;BME280;47669;48.712;9.016;2023-01-25T14:08:32;97540.97;;;-0.02;100.00
61769;BME280;47669;48.712;9.016;2023-01-25T14:10:57;97537.59;;;0.28;100.00
61769;BME280;47669;48.712;9.016;2023-01-25T14:13:23;97533.88;;;0.21;100.00
61769;BME280;47669;48.712;9.016;2023-01-25T14:15:56;97534.50;;;-0.17;100.00
61769;BME280;47669;48.712;9.016;2023-01-25T14:18:33;97534.13;;;-0.13;100.00
61769;BME280;47669;48.712;9.016;2023-01-25T14:21:20;97530.56;;;-0.12;100.00
61769;BME280;47669;48.712;9.016;2023-01-25T14:23:46;97531.63;;;-0.14;100.00
61769;BME280;47669;48.712;9.016;2023-01-25T14:28:45;97535.31;;;0.04;100.00
61769;BME280;47669;48.712;9.016;2023-01-25T14:31:34;97542.91;;;-0.25;100.00
61769;BME280;47669;48.712;9.016;2023-01-25T14:33:59;97545.41;;;-0.35;100.00
61769;BME280;47669;48.712;9.016;2023-01-25T14:36:29;97543.66;;;-0.13;100.00
61769;BME280;47669;48.712;9.016;2023-01-25T14:38:55;97548.69;;;-0.12;100.00
61769;BME280;47669;48.712;9.016;2023-01-25T14:41:41;97547.03;;;-0.34;100.00
61769;BME280;47669;48.712;9.016;2023-01-25T14:44:12;97546.66;;;-0.08;100.00